ENLA

Ula Platform Heliport

Norway
METAR ENLA 222150Z AUTO 23022KT 9999NDV NCD 08/06 Q1003 W///S3
Observed Flight Rules
Apr-22 @ 21:50 UTC (15 minutes ago)
Wind Clouds
230° at 22 knots
  • Clear skies
Temperatures Readings
Current 8°C / 46°F
Dewpoint 6°C / 43°F
Humidity 87%
Altimeter 29.62" Hg
Pressure 1003 hPa
Elevation 4
METAR ENLA 222150Z AUTO 23022KT 9999NDV NCD 08/06 Q1003 W///S3
Observed Flight Rules
Apr-22 @ 21:50 UTC
(15 minutes ago)
Wind
230° at 22 knots
Clouds
  • Clear skies
Temperature Dewpoint
8°C / 46°F 6°C / 43°F
Humidity Altimeter Pressure
87% 29.62" Hg 1003 hPa